Time;durP1;ratioP1;P1;durP2;ratioP2;P2;SDS_P1;SDS_P2;PMS_P1;PMS_P2;Temp;Humidity;BMP_temperature;BMP_pressure;BME280_temperature;BME280_humidity;BME280_pressure;Samples;Min_cycle;Max_cycle;Signal;HPM_P1;HPM_P2
2023/10/28 00:01:17;;;;;;;20.00;10.70;;;;;;;;;;2507218;23;20019;-81
2023/10/28 00:02:38;;;;;;;25.42;9.95;;;;;;;;;;2508155;23;20007;-80
2023/10/28 00:04:02;;;;;;;18.40;9.25;;;;;;;;;;2507401;23;20018;-81
2023/10/28 00:05:24;;;;;;;19.77;9.52;;;;;;;;;;2508799;23;20029;-81
2023/10/28 00:06:45;;;;;;;19.10;9.32;;;;;;;;;;2506434;23;20078;-79
2023/10/28 00:08:07;;;;;;;18.70;9.77;;;;;;;;;;2507126;23;20044;-81
2023/10/28 00:09:29;;;;;;;23.48;9.30;;;;;;;;;;2513369;23;20010;-80
2023/10/28 00:10:51;;;;;;;22.90;9.63;;;;;;;;;;2505554;23;20456;-80
2023/10/28 00:12:14;;;;;;;21.00;9.30;;;;;;;;;;2501048;23;20251;-80
2023/10/28 00:13:35;;;;;;;14.57;8.57;;;;;;;;;;2506230;23;20006;-81
2023/10/28 00:14:55;;;;;;;18.55;8.75;;;;;;;;;;2509043;23;20011;-80
2023/10/28 00:16:16;;;;;;;19.33;8.82;;;;;;;;;;2508409;23;20011;-81
2023/10/28 00:17:37;;;;;;;15.73;9.00;;;;;;;;;;2507072;23;20319;-81
2023/10/28 00:18:59;;;;;;;19.58;8.90;;;;;;;;;;2502105;23;20018;-80
2023/10/28 00:20:21;;;;;;;21.10;8.52;;;;;;;;;;2508107;23;20445;-80
2023/10/28 00:21:42;;;;;;;23.63;9.63;;;;;;;;;;2506689;23;20023;-80
2023/10/28 00:23:04;;;;;;;19.75;9.20;;;;;;;;;;2507918;23;20475;-80
2023/10/28 00:24:26;;;;;;;15.82;8.43;;;;;;;;;;2506473;23;20234;-80
2023/10/28 00:25:47;;;;;;;14.60;8.70;;;;;;;;;;2504464;23;20015;-80
2023/10/28 00:27:09;;;;;;;17.05;8.95;;;;;;;;;;2501522;23;20787;-80
2023/10/28 00:28:33;;;;;;;16.77;8.05;;;;;;;;;;2504177;23;20010;-80
2023/10/28 00:29:54;;;;;;;20.13;8.18;;;;;;;;;;2503238;23;20015;-80
2023/10/28 00:31:19;;;;;;;16.20;8.77;;;;;;;;;;2513130;23;20014;-79
2023/10/28 00:32:40;;;;;;;17.27;8.70;;;;;;;;;;2496148;23;20034;-79
2023/10/28 00:34:01;;;;;;;13.23;8.83;;;;;;;;;;2497303;23;20011;-80
2023/10/28 00:35:22;;;;;;;16.35;8.15;;;;;;;;;;2497411;23;20915;-80
2023/10/28 00:36:44;;;;;;;19.77;9.77;;;;;;;;;;2493074;23;20436;-79
2023/10/28 00:38:05;;;;;;;23.98;9.32;;;;;;;;;;2496593;23;20011;-80
2023/10/28 00:39:26;;;;;;;25.48;9.55;;;;;;;;;;2495788;23;20070;-79
2023/10/28 00:40:47;;;;;;;27.17;9.68;;;;;;;;;;2492903;23;20007;-80
2023/10/28 00:42:13;;;;;;;17.07;8.20;;;;;;;;;;2496521;23;20354;-80
2023/10/28 00:43:33;;;;;;;18.33;9.65;;;;;;;;;;2498212;23;20022;-80
2023/10/28 00:44:54;;;;;;;16.27;9.05;;;;;;;;;;2496493;23;20008;-80
2023/10/28 00:46:15;;;;;;;18.98;9.98;;;;;;;;;;2498068;23;20031;-80
2023/10/28 00:47:43;;;;;;;17.27;9.43;;;;;;;;;;2495537;23;20038;-80
2023/10/28 00:49:05;;;;;;;14.75;9.00;;;;;;;;;;2494496;23;20019;-79
2023/10/28 00:50:29;;;;;;;13.93;9.02;;;;;;;;;;2496215;23;20019;-80
2023/10/28 00:51:51;;;;;;;15.68;9.60;;;;;;;;;;2502196;23;20449;-80
2023/10/28 00:53:12;;;;;;;16.80;9.20;;;;;;;;;;2506409;23;20527;-78
2023/10/28 00:54:33;;;;;;;18.13;8.32;;;;;;;;;;2507971;23;20018;-80
2023/10/28 00:55:54;;;;;;;15.73;8.52;;;;;;;;;;2507744;23;20508;-80
2023/10/28 00:57:16;;;;;;;23.20;9.45;;;;;;;;;;2507898;23;20017;-79
2023/10/28 00:58:38;;;;;;;14.32;8.35;;;;;;;;;;2517405;23;20121;-80
2023/10/28 01:00:00;;;;;;;18.77;7.95;;;;;;;;;;2509357;23;20693;-80
2023/10/28 01:01:21;;;;;;;11.73;8.43;;;;;;;;;;2507346;23;20030;-80
2023/10/28 01:02:43;;;;;;;16.92;8.52;;;;;;;;;;2519268;23;20015;-80
2023/10/28 01:04:05;;;;;;;23.30;9.10;;;;;;;;;;2521133;23;20014;-80
2023/10/28 01:05:26;;;;;;;15.50;9.02;;;;;;;;;;2520933;23;20011;-80
2023/10/28 01:06:47;;;;;;;18.52;8.00;;;;;;;;;;2520338;23;20037;-80
2023/10/28 01:08:09;;;;;;;14.20;7.68;;;;;;;;;;2520194;23;20078;-80
2023/10/28 01:09:30;;;;;;;18.00;7.85;;;;;;;;;;2520818;23;20314;-80
2023/10/28 01:10:51;;;;;;;21.45;8.25;;;;;;;;;;2521591;23;20010;-79
2023/10/28 01:12:13;;;;;;;18.73;8.25;;;;;;;;;;2520322;23;20045;-79
2023/10/28 01:13:34;;;;;;;12.85;8.02;;;;;;;;;;2518499;23;20470;-80
2023/10/28 01:14:56;;;;;;;15.20;7.75;;;;;;;;;;2521031;23;20017;-80
2023/10/28 01:16:17;;;;;;;17.20;8.65;;;;;;;;;;2519340;23;20010;-80
2023/10/28 01:17:38;;;;;;;18.42;8.30;;;;;;;;;;2521852;23;20006;-79
2023/10/28 01:18:59;;;;;;;12.05;7.68;;;;;;;;;;2519951;23;20018;-80
2023/10/28 01:20:20;;;;;;;15.82;7.97;;;;;;;;;;2520082;23;20037;-80
2023/10/28 01:21:42;;;;;;;13.57;6.72;;;;;;;;;;2519866;23;20025;-80
2023/10/28 01:23:03;;;;;;;20.05;7.80;;;;;;;;;;2521098;23;20019;-80
2023/10/28 01:24:24;;;;;;;14.05;7.43;;;;;;;;;;2519300;23;20011;-80
2023/10/28 01:25:44;;;;;;;14.25;7.32;;;;;;;;;;2520819;23;20480;-80
2023/10/28 01:27:08;;;;;;;12.95;7.40;;;;;;;;;;2518214;23;20018;-80
2023/10/28 01:28:29;;;;;;;12.75;8.20;;;;;;;;;;2519198;23;20018;-80
2023/10/28 01:29:51;;;;;;;23.88;8.23;;;;;;;;;;2518943;23;20011;-80
2023/10/28 01:31:12;;;;;;;13.95;7.80;;;;;;;;;;2519359;23;20157;-78
2023/10/28 01:32:33;;;;;;;14.93;7.90;;;;;;;;;;2519434;23;20014;-79
2023/10/28 01:33:54;;;;;;;12.20;7.35;;;;;;;;;;2519829;23;20006;-80
2023/10/28 01:35:15;;;;;;;15.25;7.68;;;;;;;;;;2521612;23;20349;-80
2023/10/28 01:36:36;;;;;;;12.40;7.78;;;;;;;;;;2519401;23;20011;-80
2023/10/28 01:37:57;;;;;;;14.45;7.57;;;;;;;;;;2519910;23;20011;-79
2023/10/28 01:39:18;;;;;;;18.08;9.43;;;;;;;;;;2520489;23;20010;-80
2023/10/28 01:40:39;;;;;;;19.50;8.80;;;;;;;;;;2520940;23;20456;-80
2023/10/28 01:42:00;;;;;;;11.93;7.72;;;;;;;;;;2517462;23;20026;-80
2023/10/28 01:43:21;;;;;;;17.38;8.02;;;;;;;;;;2520203;23;20085;-80
2023/10/28 01:44:42;;;;;;;11.15;6.90;;;;;;;;;;2527578;23;20014;-80
2023/10/28 01:46:04;;;;;;;19.48;7.90;;;;;;;;;;2519198;23;20014;-79
2023/10/28 01:47:25;;;;;;;12.20;7.13;;;;;;;;;;2517908;23;20010;-79
2023/10/28 01:48:46;;;;;;;11.17;6.70;;;;;;;;;;2519377;23;20037;-80
2023/10/28 01:50:07;;;;;;;12.70;7.35;;;;;;;;;;2519237;23;20061;-80
2023/10/28 01:51:28;;;;;;;15.98;8.55;;;;;;;;;;2525304;23;20014;-80
2023/10/28 01:52:49;;;;;;;12.82;8.02;;;;;;;;;;2518018;23;20022;-79
2023/10/28 01:54:10;;;;;;;14.93;7.93;;;;;;;;;;2519664;23;20015;-80
2023/10/28 01:55:32;;;;;;;14.38;6.88;;;;;;;;;;2520655;23;20045;-80
2023/10/28 01:56:54;;;;;;;14.93;6.93;;;;;;;;;;2520652;23;20018;-79
2023/10/28 01:58:15;;;;;;;10.52;7.75;;;;;;;;;;2518239;23;20011;-79
2023/10/28 01:59:36;;;;;;;13.50;7.97;;;;;;;;;;2520552;23;20353;-80
2023/10/28 02:00:57;;;;;;;9.93;6.85;;;;;;;;;;2519648;23;20058;-80
2023/10/28 02:02:18;;;;;;;19.67;6.95;;;;;;;;;;2519516;23;20042;-80
2023/10/28 02:03:39;;;;;;;12.05;6.18;;;;;;;;;;2521324;23;20415;-80
2023/10/28 02:05:00;;;;;;;9.15;6.88;;;;;;;;;;2519080;23;20011;-81
2023/10/28 02:06:21;;;;;;;12.50;7.22;;;;;;;;;;2521996;23;20010;-80
2023/10/28 02:07:42;;;;;;;14.85;6.70;;;;;;;;;;2520331;23;20014;-80
2023/10/28 02:09:03;;;;;;;9.30;6.05;;;;;;;;;;2521399;23;20010;-80
2023/10/28 02:10:24;;;;;;;9.40;6.65;;;;;;;;;;2521137;23;20341;-80
2023/10/28 02:11:45;;;;;;;9.15;6.28;;;;;;;;;;2520932;23;19994;-79
2023/10/28 02:13:06;;;;;;;10.80;6.43;;;;;;;;;;2519674;23;20017;-80
2023/10/28 02:14:26;;;;;;;11.07;5.93;;;;;;;;;;2523266;23;20006;-80
2023/10/28 02:15:50;;;;;;;12.32;6.40;;;;;;;;;;2520874;23;20014;-80
2023/10/28 02:17:11;;;;;;;9.77;5.97;;;;;;;;;;2521719;23;20010;-80
2023/10/28 02:18:33;;;;;;;10.88;7.45;;;;;;;;;;2519101;23;20394;-80
2023/10/28 02:19:56;;;;;;;9.57;6.13;;;;;;;;;;2521874;23;20033;-80
2023/10/28 02:21:20;;;;;;;8.48;6.45;;;;;;;;;;2519862;23;20006;-80
2023/10/28 02:22:41;;;;;;;12.32;6.35;;;;;;;;;;2518850;23;20070;-79
2023/10/28 02:24:03;;;;;;;11.40;6.20;;;;;;;;;;2528813;23;20081;-81
2023/10/28 02:25:24;;;;;;;8.38;6.50;;;;;;;;;;2525073;23;20017;-80
2023/10/28 02:26:45;;;;;;;10.05;7.03;;;;;;;;;;2520820;23;20077;-80
2023/10/28 02:28:06;;;;;;;9.70;6.72;;;;;;;;;;2519876;23;20015;-80
2023/10/28 02:29:27;;;;;;;8.85;6.63;;;;;;;;;;2522162;23;20113;-80
2023/10/28 02:30:48;;;;;;;7.78;6.18;;;;;;;;;;2519952;23;20293;-80
2023/10/28 02:32:09;;;;;;;7.75;6.05;;;;;;;;;;2519992;23;20441;-79
2023/10/28 02:33:30;;;;;;;10.32;6.72;;;;;;;;;;2515775;23;20049;-79
2023/10/28 02:34:51;;;;;;;10.77;6.28;;;;;;;;;;2521198;23;20022;-80
2023/10/28 02:36:12;;;;;;;9.07;6.10;;;;;;;;;;2519918;23;20014;-80
2023/10/28 02:37:33;;;;;;;7.22;5.80;;;;;;;;;;2515946;23;20423;-80
2023/10/28 02:38:54;;;;;;;8.65;6.20;;;;;;;;;;2503591;23;20062;-80
2023/10/28 02:40:15;;;;;;;11.65;6.82;;;;;;;;;;2524943;23;20025;-79
2023/10/28 02:41:36;;;;;;;7.35;6.20;;;;;;;;;;2517982;23;20017;-80
2023/10/28 02:42:57;;;;;;;8.55;6.35;;;;;;;;;;2519458;23;20341;-79
2023/10/28 02:44:17;;;;;;;9.45;6.85;;;;;;;;;;2518643;23;20014;-80
2023/10/28 02:45:38;;;;;;;11.50;6.55;;;;;;;;;;2519714;23;20018;-80
2023/10/28 02:46:59;;;;;;;9.82;6.57;;;;;;;;;;2518400;23;20015;-80
2023/10/28 02:48:20;;;;;;;12.07;6.53;;;;;;;;;;2518580;23;20417;-80
2023/10/28 02:49:41;;;;;;;8.02;6.60;;;;;;;;;;2518958;23;20065;-79
2023/10/28 02:51:03;;;;;;;12.90;5.80;;;;;;;;;;2519274;23;20014;-80
2023/10/28 02:52:24;;;;;;;11.18;6.60;;;;;;;;;;2518645;23;20015;-80
2023/10/28 02:53:45;;;;;;;7.63;6.57;;;;;;;;;;2519975;23;20017;-79
2023/10/28 02:55:06;;;;;;;9.25;5.75;;;;;;;;;;2518610;23;20007;-79
2023/10/28 02:56:27;;;;;;;6.57;5.93;;;;;;;;;;2519951;23;20464;-79
2023/10/28 02:57:48;;;;;;;9.37;6.07;;;;;;;;;;2519168;23;20010;-79
2023/10/28 02:59:11;;;;;;;7.60;5.72;;;;;;;;;;2518818;23;20696;-79
2023/10/28 03:00:31;;;;;;;6.05;5.35;;;;;;;;;;2519996;23;20015;-81
2023/10/28 03:01:53;;;;;;;8.40;5.97;;;;;;;;;;2518793;23;20030;-80
2023/10/28 03:03:14;;;;;;;7.10;6.43;;;;;;;;;;2520303;23;20480;-83
2023/10/28 03:04:34;;;;;;;5.47;5.05;;;;;;;;;;2519566;23;20015;-80
2023/10/28 03:05:55;;;;;;;9.00;6.10;;;;;;;;;;2521550;23;20017;-80
2023/10/28 03:07:17;;;;;;;9.15;5.55;;;;;;;;;;2519678;23;20011;-79
2023/10/28 03:08:38;;;;;;;5.47;4.97;;;;;;;;;;2520303;23;20348;-80
2023/10/28 03:09:59;;;;;;;12.25;6.20;;;;;;;;;;2519786;23;20382;-80
2023/10/28 03:11:20;;;;;;;8.70;5.53;;;;;;;;;;2520327;23;20010;-80
2023/10/28 03:12:41;;;;;;;7.47;5.00;;;;;;;;;;2519974;23;20372;-80
2023/10/28 03:14:02;;;;;;;9.43;6.25;;;;;;;;;;2520051;23;20020;-80
2023/10/28 03:15:24;;;;;;;6.40;5.80;;;;;;;;;;2521421;23;20073;-80
2023/10/28 03:16:46;;;;;;;10.98;6.40;;;;;;;;;;2519638;23;20013;-80
2023/10/28 03:18:06;;;;;;;6.90;6.25;;;;;;;;;;2515740;23;20010;-79
2023/10/28 03:19:27;;;;;;;8.52;5.70;;;;;;;;;;2515441;23;20015;-80
2023/10/28 03:20:48;;;;;;;11.02;6.00;;;;;;;;;;2519451;23;20010;-80
2023/10/28 03:22:09;;;;;;;7.13;5.80;;;;;;;;;;2520246;23;20356;-81
2023/10/28 03:23:30;;;;;;;6.10;5.32;;;;;;;;;;2520603;23;20101;-79
2023/10/28 03:24:51;;;;;;;6.45;5.65;;;;;;;;;;2519905;23;20078;-80
2023/10/28 03:26:12;;;;;;;9.82;5.70;;;;;;;;;;2520198;23;20022;-80
2023/10/28 03:27:33;;;;;;;9.57;6.38;;;;;;;;;;2519184;23;20081;-79
2023/10/28 03:28:54;;;;;;;10.45;6.38;;;;;;;;;;2517782;23;20017;-81
2023/10/28 03:30:15;;;;;;;8.80;5.38;;;;;;;;;;2520314;23;20011;-80
2023/10/28 03:31:36;;;;;;;7.18;6.43;;;;;;;;;;2517495;23;20017;-81
2023/10/28 03:32:57;;;;;;;8.27;6.45;;;;;;;;;;2516303;23;20025;-80
2023/10/28 03:34:18;;;;;;;10.00;6.18;;;;;;;;;;2519022;23;20010;-80
2023/10/28 03:35:39;;;;;;;9.85;6.60;;;;;;;;;;2519187;23;20039;-80
2023/10/28 03:37:00;;;;;;;12.00;6.15;;;;;;;;;;2518274;23;20017;-81
2023/10/28 03:38:22;;;;;;;11.82;6.70;;;;;;;;;;2518640;23;20318;-80
2023/10/28 03:39:43;;;;;;;8.98;6.82;;;;;;;;;;2520467;23;20113;-79
2023/10/28 03:41:07;;;;;;;9.25;6.47;;;;;;;;;;2518813;23;20014;-79
2023/10/28 03:42:27;;;;;;;11.43;7.07;;;;;;;;;;2517362;23;20053;-80
2023/10/28 03:43:48;;;;;;;7.95;7.15;;;;;;;;;;2519494;23;20018;-80
2023/10/28 03:45:09;;;;;;;11.48;6.50;;;;;;;;;;2518473;23;20360;-79
2023/10/28 03:46:30;;;;;;;9.20;6.95;;;;;;;;;;2520079;23;20365;-80
2023/10/28 03:47:51;;;;;;;9.38;6.30;;;;;;;;;;2527708;23;20021;-79
2023/10/28 03:49:12;;;;;;;8.50;6.88;;;;;;;;;;2525210;23;20016;-79
2023/10/28 03:50:33;;;;;;;8.63;7.10;;;;;;;;;;2519966;23;20197;-79
2023/10/28 03:51:54;;;;;;;8.88;7.03;;;;;;;;;;2518414;23;20018;-79
2023/10/28 03:53:15;;;;;;;8.82;7.15;;;;;;;;;;2522179;23;20058;-80
2023/10/28 03:54:36;;;;;;;7.30;6.13;;;;;;;;;;2519094;23;20397;-80
2023/10/28 03:55:57;;;;;;;11.23;6.70;;;;;;;;;;2521706;23;20006;-79
2023/10/28 03:57:18;;;;;;;11.52;6.40;;;;;;;;;;2516477;23;20010;-80
2023/10/28 03:58:39;;;;;;;9.43;6.55;;;;;;;;;;2520120;23;20010;-80
2023/10/28 04:00:00;;;;;;;10.88;7.38;;;;;;;;;;2521302;23;20026;-80
2023/10/28 04:01:22;;;;;;;8.00;7.20;;;;;;;;;;2519249;23;20029;-81
2023/10/28 04:02:43;;;;;;;9.85;6.82;;;;;;;;;;2521780;23;20393;-80
2023/10/28 04:04:04;;;;;;;9.45;6.70;;;;;;;;;;2508262;23;20015;-79
2023/10/28 04:05:26;;;;;;;8.80;6.97;;;;;;;;;;2509768;23;20011;-79
2023/10/28 04:06:47;;;;;;;12.00;6.97;;;;;;;;;;2516782;23;20063;-79
2023/10/28 04:08:08;;;;;;;9.57;6.63;;;;;;;;;;2522614;23;20014;-80
2023/10/28 04:09:29;;;;;;;11.57;7.07;;;;;;;;;;2520937;23;20017;-80
2023/10/28 04:10:50;;;;;;;9.13;6.15;;;;;;;;;;2509692;23;20007;-79
2023/10/28 04:12:11;;;;;;;9.38;6.65;;;;;;;;;;2514349;23;20025;-79
2023/10/28 04:13:32;;;;;;;8.77;6.53;;;;;;;;;;2521757;23;20017;-79
2023/10/28 04:14:53;;;;;;;11.07;6.78;;;;;;;;;;2521493;23;20444;-79
2023/10/28 04:16:13;;;;;;;8.38;6.55;;;;;;;;;;2520965;23;20292;-79
2023/10/28 04:17:34;;;;;;;9.90;6.70;;;;;;;;;;2520745;23;20021;-79
2023/10/28 04:18:56;;;;;;;10.00;6.70;;;;;;;;;;2509727;23;20007;-78
2023/10/28 04:20:17;;;;;;;12.57;7.07;;;;;;;;;;2509911;23;20015;-79
2023/10/28 04:21:38;;;;;;;10.93;6.18;;;;;;;;;;2504112;23;20025;-81
2023/10/28 04:22:59;;;;;;;8.55;6.72;;;;;;;;;;2508510;23;20014;-80
2023/10/28 04:24:20;;;;;;;8.30;6.55;;;;;;;;;;2516459;23;20341;-80
2023/10/28 04:25:42;;;;;;;9.90;6.43;;;;;;;;;;2519378;23;20093;-80
2023/10/28 04:27:03;;;;;;;10.40;6.28;;;;;;;;;;2507290;23;20018;-80
2023/10/28 04:28:24;;;;;;;12.73;6.65;;;;;;;;;;2506931;23;20019;-79
2023/10/28 04:29:45;;;;;;;8.80;6.45;;;;;;;;;;2515498;23;20021;-79
2023/10/28 04:31:06;;;;;;;8.02;6.53;;;;;;;;;;2506932;23;20022;-80
2023/10/28 04:32:27;;;;;;;10.02;6.93;;;;;;;;;;2507625;23;20010;-79
2023/10/28 04:33:48;;;;;;;8.93;6.45;;;;;;;;;;2516673;23;20057;-80
2023/10/28 04:35:11;;;;;;;9.15;7.03;;;;;;;;;;2515479;23;20006;-80
2023/10/28 04:36:33;;;;;;;10.10;6.50;;;;;;;;;;2516804;23;20007;-80
2023/10/28 04:37:54;;;;;;;11.45;6.95;;;;;;;;;;2518903;23;20433;-80
2023/10/28 04:39:14;;;;;;;9.07;6.07;;;;;;;;;;2519830;23;20051;-79
2023/10/28 04:40:37;;;;;;;10.65;6.70;;;;;;;;;;2517364;23;20015;-80
2023/10/28 04:41:58;;;;;;;7.05;6.13;;;;;;;;;;2518184;23;20373;-81
2023/10/28 04:43:19;;;;;;;7.00;5.95;;;;;;;;;;2518704;23;20340;-80
2023/10/28 04:44:40;;;;;;;9.23;5.85;;;;;;;;;;2515718;23;20010;-80
2023/10/28 04:46:01;;;;;;;10.15;6.93;;;;;;;;;;2519506;23;20010;-80
2023/10/28 04:47:24;;;;;;;11.45;7.85;;;;;;;;;;2518779;23;20025;-80
2023/10/28 04:48:46;;;;;;;9.50;6.70;;;;;;;;;;2518754;23;20007;-80
2023/10/28 04:50:07;;;;;;;8.27;6.20;;;;;;;;;;2517861;23;20541;-80
2023/10/28 04:51:28;;;;;;;9.18;7.43;;;;;;;;;;2518357;23;20380;-80
2023/10/28 04:52:49;;;;;;;10.52;6.47;;;;;;;;;;2519046;23;20025;-80
2023/10/28 04:54:10;;;;;;;9.82;7.25;;;;;;;;;;2518783;23;20010;-80
2023/10/28 04:55:31;;;;;;;12.80;7.32;;;;;;;;;;2518925;23;20344;-80
2023/10/28 04:56:52;;;;;;;9.52;6.80;;;;;;;;;;2519184;23;20011;-81
2023/10/28 04:58:14;;;;;;;10.07;7.30;;;;;;;;;;2519038;23;20019;-81
2023/10/28 04:59:35;;;;;;;19.00;8.00;;;;;;;;;;2518152;23;20445;-79
2023/10/28 05:00:56;;;;;;;8.05;6.60;;;;;;;;;;2518511;23;20041;-80
2023/10/28 05:02:17;;;;;;;13.18;7.32;;;;;;;;;;2519289;23;20019;-81
2023/10/28 05:03:38;;;;;;;13.77;7.25;;;;;;;;;;2515442;23;20019;-78
2023/10/28 05:05:01;;;;;;;9.40;7.20;;;;;;;;;;2514955;23;20054;-77
2023/10/28 05:06:21;;;;;;;9.23;6.95;;;;;;;;;;2518632;23;20011;-78
2023/10/28 05:07:43;;;;;;;12.93;6.90;;;;;;;;;;2520125;23;20011;-80
2023/10/28 05:09:04;;;;;;;10.10;7.43;;;;;;;;;;2518653;23;20140;-79
2023/10/28 05:10:25;;;;;;;9.57;7.07;;;;;;;;;;2520821;23;20737;-81
2023/10/28 05:11:46;;;;;;;10.90;7.03;;;;;;;;;;2527252;23;20014;-79
2023/10/28 05:13:07;;;;;;;7.43;6.70;;;;;;;;;;2522139;23;20010;-81
2023/10/28 05:14:28;;;;;;;11.55;7.38;;;;;;;;;;2520396;23;20369;-79
2023/10/28 05:15:49;;;;;;;10.00;6.63;;;;;;;;;;2520603;23;20010;-80
2023/10/28 05:17:10;;;;;;;8.88;6.70;;;;;;;;;;2520497;23;20014;-80
2023/10/28 05:18:31;;;;;;;10.77;6.85;;;;;;;;;;2520268;23;20015;-79
2023/10/28 05:19:52;;;;;;;9.67;6.97;;;;;;;;;;2518774;23;20025;-79
2023/10/28 05:21:13;;;;;;;13.80;6.88;;;;;;;;;;2519674;23;20397;-79
2023/10/28 05:22:38;;;;;;;8.70;6.43;;;;;;;;;;2517653;23;20018;-79
2023/10/28 05:23:59;;;;;;;10.65;7.57;;;;;;;;;;2520147;23;20015;-80
2023/10/28 05:25:20;;;;;;;9.05;7.32;;;;;;;;;;2519966;23;20019;-80
2023/10/28 05:26:42;;;;;;;9.40;7.22;;;;;;;;;;2518660;23;20010;-79
2023/10/28 05:28:03;;;;;;;9.20;7.00;;;;;;;;;;2515727;23;20018;-81
2023/10/28 05:29:24;;;;;;;11.02;6.85;;;;;;;;;;2515315;23;20011;-80
2023/10/28 05:30:48;;;;;;;10.20;6.82;;;;;;;;;;2519959;23;20007;-79
2023/10/28 05:32:10;;;;;;;11.68;6.85;;;;;;;;;;2515069;23;20013;-79
2023/10/28 05:33:31;;;;;;;10.75;6.50;;;;;;;;;;2520418;23;20010;-80
2023/10/28 05:34:52;;;;;;;8.90;6.90;;;;;;;;;;2519184;23;20017;-80
2023/10/28 05:36:15;;;;;;;10.82;7.32;;;;;;;;;;2519909;23;20011;-79
2023/10/28 05:37:39;;;;;;;12.13;7.40;;;;;;;;;;2518181;23;20010;-79
2023/10/28 05:39:00;;;;;;;9.98;6.70;;;;;;;;;;2520012;23;20007;-79
2023/10/28 05:40:21;;;;;;;10.48;7.25;;;;;;;;;;2515343;23;20014;-80
2023/10/28 05:41:42;;;;;;;9.55;7.75;;;;;;;;;;2520648;23;20018;-80
2023/10/28 05:43:03;;;;;;;11.63;7.60;;;;;;;;;;2516267;23;20022;-79
2023/10/28 05:44:24;;;;;;;12.73;8.38;;;;;;;;;;2519582;23;20029;-80
2023/10/28 05:45:45;;;;;;;8.65;6.63;;;;;;;;;;2518357;23;20070;-79
2023/10/28 05:47:07;;;;;;;8.95;7.63;;;;;;;;;;2517785;23;20336;-80
2023/10/28 05:48:28;;;;;;;;;;;;;;;;;;2516392;23;20015;-79
2023/10/28 05:49:49;;;;;;;8.95;7.57;;;;;;;;;;2519829;23;19920;-80
2023/10/28 05:51:10;;;;;;;9.65;7.00;;;;;;;;;;2520051;23;20556;-80
2023/10/28 05:52:32;;;;;;;9.13;6.60;;;;;;;;;;2517708;23;20011;-79
2023/10/28 05:53:52;;;;;;;13.00;6.47;;;;;;;;;;2519774;23;20014;-81
2023/10/28 05:55:13;;;;;;;10.68;7.07;;;;;;;;;;2518456;23;20014;-80
2023/10/28 05:56:35;;;;;;;8.27;6.63;;;;;;;;;;2518962;23;20014;-80
2023/10/28 05:57:56;;;;;;;14.93;7.93;;;;;;;;;;2517459;23;20360;-79
2023/10/28 05:59:17;;;;;;;10.45;7.63;;;;;;;;;;2520074;23;20014;-79
2023/10/28 06:00:38;;;;;;;9.40;6.88;;;;;;;;;;2518549;23;20010;-80
2023/10/28 06:02:01;;;;;;;9.88;6.60;;;;;;;;;;2521604;23;20034;-80
2023/10/28 06:03:22;;;;;;;9.18;6.55;;;;;;;;;;2517097;23;20010;-79
2023/10/28 06:04:42;;;;;;;10.55;7.07;;;;;;;;;;2521450;23;20022;-80
2023/10/28 06:06:03;;;;;;;10.48;6.30;;;;;;;;;;2519807;23;20021;-80
2023/10/28 06:07:24;;;;;;;11.27;6.55;;;;;;;;;;2516800;23;20010;-80
2023/10/28 06:08:45;;;;;;;8.57;7.07;;;;;;;;;;2514333;23;20006;-80
2023/10/28 06:10:07;;;;;;;10.93;6.75;;;;;;;;;;2521292;23;20011;-80
2023/10/28 06:11:28;;;;;;;;;;;;;;;;;;2519831;23;20010;-79
2023/10/28 06:12:49;;;;;;;13.65;7.15;;;;;;;;;;2520418;23;19929;-79
2023/10/28 06:14:10;;;;;;;8.77;6.10;;;;;;;;;;2519374;23;20109;-80
2023/10/28 06:15:31;;;;;;;11.63;7.32;;;;;;;;;;2520841;23;20017;-80
2023/10/28 06:16:51;;;;;;;12.68;5.93;;;;;;;;;;2519896;23;20445;-79
2023/10/28 06:18:14;;;;;;;13.20;7.22;;;;;;;;;;2513620;23;20021;-78
2023/10/28 06:19:34;;;;;;;;;;;;;;;;;;2515269;23;20021;-80
2023/10/28 06:20:55;;;;;;;10.63;7.68;;;;;;;;;;2517239;23;19901;-80
2023/10/28 06:22:16;;;;;;;14.75;7.13;;;;;;;;;;2518083;23;20015;-80
2023/10/28 06:23:40;;;;;;;11.02;6.90;;;;;;;;;;2514599;23;20018;-80
2023/10/28 06:25:01;;;;;;;8.82;6.90;;;;;;;;;;2520610;23;20014;-79
2023/10/28 06:26:22;;;;;;;13.85;7.03;;;;;;;;;;2518899;23;20442;-80
2023/10/28 06:27:43;;;;;;;11.13;6.60;;;;;;;;;;2520134;23;20018;-79
2023/10/28 06:29:04;;;;;;;9.32;6.45;;;;;;;;;;2518871;23;20014;-79
2023/10/28 06:30:28;;;;;;;12.80;6.78;;;;;;;;;;2520889;23;20021;-80
2023/10/28 06:31:49;;;;;;;10.32;6.15;;;;;;;;;;2519143;23;20007;-80
2023/10/28 06:33:12;;;;;;;10.48;6.53;;;;;;;;;;2516001;23;20011;-81
2023/10/28 06:34:33;;;;;;;9.25;7.13;;;;;;;;;;2513141;23;20413;-81
2023/10/28 06:35:54;;;;;;;8.32;5.63;;;;;;;;;;2520307;23;20021;-81
2023/10/28 06:37:15;;;;;;;13.63;7.60;;;;;;;;;;2531668;23;20013;-78
2023/10/28 06:38:36;;;;;;;8.70;6.80;;;;;;;;;;2505355;23;20015;-78
2023/10/28 06:39:58;;;;;;;11.10;6.78;;;;;;;;;;2521358;23;20018;-79
2023/10/28 06:41:19;;;;;;;10.57;6.78;;;;;;;;;;2522926;23;20470;-79
2023/10/28 06:42:40;;;;;;;14.55;6.78;;;;;;;;;;2518410;23;20080;-79
2023/10/28 06:44:05;;;;;;;12.18;7.47;;;;;;;;;;2532431;23;20021;-79
2023/10/28 06:45:28;;;;;;;10.70;7.05;;;;;;;;;;2518307;23;20470;-78
2023/10/28 06:46:48;;;;;;;;;;;;;;;;;;2515241;23;20025;-79
2023/10/28 06:48:10;;;;;;;8.25;6.70;;;;;;;;;;2520774;23;20250;-77
2023/10/28 06:49:31;;;;;;;9.40;6.72;;;;;;;;;;2518440;23;20037;-80
2023/10/28 06:50:52;;;;;;;12.82;7.95;;;;;;;;;;2518439;23;20440;-77
2023/10/28 06:52:13;;;;;;;11.65;7.25;;;;;;;;;;2517107;23;20051;-77
2023/10/28 06:53:34;;;;;;;9.90;6.82;;;;;;;;;;2517598;23;20437;-77
2023/10/28 06:54:55;;;;;;;13.07;8.20;;;;;;;;;;2517976;23;20011;-78
2023/10/28 06:56:16;;;;;;;14.60;7.38;;;;;;;;;;2519631;23;20006;-79
2023/10/28 06:57:37;;;;;;;8.30;6.88;;;;;;;;;;2517724;23;20456;-78
2023/10/28 06:58:57;;;;;;;10.60;6.35;;;;;;;;;;2519801;23;20038;-79
2023/10/28 07:00:21;;;;;;;9.15;6.85;;;;;;;;;;2519089;23;20015;-80
2023/10/28 07:01:42;;;;;;;13.60;6.50;;;;;;;;;;2515810;23;20046;-79
2023/10/28 07:03:03;;;;;;;9.80;6.47;;;;;;;;;;2519451;23;20029;-80
2023/10/28 07:04:24;;;;;;;10.20;6.28;;;;;;;;;;2521289;23;20026;-80
2023/10/28 07:05:45;;;;;;;12.18;7.13;;;;;;;;;;2518097;23;20030;-79
2023/10/28 07:07:08;;;;;;;11.23;7.05;;;;;;;;;;2520763;23;20010;-80
2023/10/28 07:08:29;;;;;;;9.60;6.90;;;;;;;;;;2518896;23;20037;-79
2023/10/28 07:09:51;;;;;;;10.32;7.05;;;;;;;;;;2519936;23;20023;-80
2023/10/28 07:11:13;;;;;;;11.30;7.57;;;;;;;;;;2518603;23;20344;-79
2023/10/28 07:12:33;;;;;;;7.85;7.07;;;;;;;;;;2518996;23;20006;-78
2023/10/28 07:13:54;;;;;;;15.05;7.07;;;;;;;;;;2519597;23;20010;-79
2023/10/28 07:15:15;;;;;;;9.80;6.70;;;;;;;;;;2519356;23;20014;-78
2023/10/28 07:16:36;;;;;;;10.05;6.30;;;;;;;;;;2519198;23;20344;-79
2023/10/28 07:17:58;;;;;;;11.48;7.35;;;;;;;;;;2525668;23;20010;-78
2023/10/28 07:19:19;;;;;;;11.15;7.50;;;;;;;;;;2521182;23;20014;-78
2023/10/28 07:20:40;;;;;;;12.23;6.45;;;;;;;;;;2520806;23;20011;-80
2023/10/28 07:22:01;;;;;;;12.48;7.25;;;;;;;;;;2520706;23;20065;-80
2023/10/28 07:23:22;;;;;;;9.95;6.75;;;;;;;;;;2517803;23;20014;-79
2023/10/28 07:24:43;;;;;;;10.27;7.60;;;;;;;;;;2520830;23;20019;-78
2023/10/28 07:26:04;;;;;;;8.27;6.93;;;;;;;;;;2518032;23;20041;-79
2023/10/28 07:27:26;;;;;;;12.63;7.38;;;;;;;;;;2520497;23;20014;-79
2023/10/28 07:28:47;;;;;;;13.55;7.93;;;;;;;;;;2517106;23;20094;-79
2023/10/28 07:30:10;;;;;;;13.02;6.25;;;;;;;;;;2521638;23;20042;-80
2023/10/28 07:31:31;;;;;;;10.57;6.47;;;;;;;;;;2518844;23;20017;-79
2023/10/28 07:32:52;;;;;;;13.02;7.75;;;;;;;;;;2519962;23;20066;-78
2023/10/28 07:34:16;;;;;;;11.30;7.75;;;;;;;;;;2519065;23;20014;-79
2023/10/28 07:35:36;;;;;;;8.30;6.18;;;;;;;;;;2521084;23;20017;-78
2023/10/28 07:37:03;;;;;;;14.05;7.00;;;;;;;;;;2519468;23;20007;-79
2023/10/28 07:38:24;;;;;;;15.30;7.65;;;;;;;;;;2519020;23;20010;-79
2023/10/28 07:39:48;;;;;;;11.63;7.70;;;;;;;;;;2518852;23;20010;-79
2023/10/28 07:41:09;;;;;;;8.20;6.65;;;;;;;;;;2519939;23;20021;-80
2023/10/28 07:42:30;;;;;;;8.98;6.05;;;;;;;;;;2515415;23;20037;-82
2023/10/28 07:43:50;;;;;;;10.20;7.25;;;;;;;;;;2513703;23;20018;-78
2023/10/28 07:45:13;;;;;;;7.93;6.25;;;;;;;;;;2516162;23;20077;-79
2023/10/28 07:46:34;;;;;;;9.73;7.30;;;;;;;;;;2515550;23;20065;-79
2023/10/28 07:47:55;;;;;;;13.25;7.30;;;;;;;;;;2519617;23;20014;-78
2023/10/28 07:49:16;;;;;;;13.27;7.22;;;;;;;;;;2520535;23;20011;-79
2023/10/28 07:50:37;;;;;;;10.45;7.45;;;;;;;;;;2521103;23;20022;-79
2023/10/28 07:52:00;;;;;;;16.95;6.80;;;;;;;;;;2519431;23;20026;-79
2023/10/28 07:53:21;;;;;;;10.38;6.28;;;;;;;;;;2518781;23;20007;-79
2023/10/28 07:54:42;;;;;;;10.07;6.60;;;;;;;;;;2520152;23;20010;-79
2023/10/28 07:56:03;;;;;;;8.27;6.22;;;;;;;;;;2520917;23;20065;-79
2023/10/28 07:57:24;;;;;;;12.98;7.00;;;;;;;;;;2518812;23;20479;-79
2023/10/28 07:58:46;;;;;;;12.45;6.80;;;;;;;;;;2521358;23;20471;-79
2023/10/28 08:00:10;;;;;;;10.63;5.90;;;;;;;;;;2519721;23;20011;-79
2023/10/28 08:01:31;;;;;;;7.70;6.13;;;;;;;;;;2529953;23;20045;-79
2023/10/28 08:02:55;;;;;;;10.80;7.40;;;;;;;;;;2519756;23;20033;-79
2023/10/28 08:04:16;;;;;;;11.02;7.03;;;;;;;;;;2517729;23;20021;-79